TULLOCH (TUL)

Elevation: 515' · STANISLAUS R basin · Operator: US Bureau of Reclamation


Station comments:

05/18/2015The capacity was revised in April 2015 using data from the US Bureau of Reclamation


Provisional data, subject to change.
Query executed Monday at 8:34:16   clock

Select a sensor type for a plot of data.
Note: Reservoir Flows are daily averages.

Earlier

Date RES ELE    STORAGE    RES CHG    TOC STO    ABV TOC    OUTFLOW    INFLOW    EVAP    RIV REL    SPILL    DIS PWR   
 FEET   AF   AF   AF   AF   CFS   CFS   CFS   CFS   CFS   CFS  
06/07/2015 507.90 64368 -1439 67000 -2632 946 228 7 0 0 946
06/08/2015 509.00 65720 1352 67000 -1280 910 1611 19 0 0 910
06/09/2015 509.48 66319 599 67000 -681 958 1279 19 0 0 958
06/10/2015 509.33 66132 -187 67000 -868 1004 922 12 0 0 1004
06/11/2015 508.58 65203 -929 67000 -1797 994 538 12 0 0 994
06/12/2015 507.92 64392 -811 67000 -2608 1022 626 13 0 0 1022
06/13/2015 507.60 64004 -388 67000 -2996 1098 920 18 0 0 1098
06/14/2015 507.74 64174 170 67000 -2826 1097 1202 19 0 0 1097
06/15/2015 507.71 64138 -36 67000 -2862 1074 1076 20 0 0 1074
06/16/2015 507.63 64041 -97 67000 -2959 1126 1095 18 0 0 1126
06/17/2015 509.14 65895 1854 67000 -1105 1147 2101 19 0 0 1147
06/18/2015 508.87 65560 -335 67000 -1440 1111 961 19 0 0 1111
06/19/2015 508.97 65683 123 67000 -1317 1111 1193 20 0 0 1111
06/20/2015 509.37 66182 499 67000 -818 1081 1352 19 0 0 1081
06/21/2015 508.48 65080 -1102 67000 -1920 1043 506 19 0 0 1043
06/22/2015 508.86 65548 468 67000 -1452 993 1247 18 0 0 993
06/23/2015 508.92 65622 74 67000 -1378 1041 1093 15 0 0 1041
06/24/2015 507.97 64453 -1169 67000 -2547 1132 564 21 0 0 1132
06/25/2015 509.00 65720 1267 67000 -1280 1137 1795 19 0 0 1137
06/26/2015 509.48 66319 599 67000 -681 1112 1436 22 0 0 1112
06/27/2015 -- 65957 -362 67000 -- -- -- -- -- -- --
06/28/2015 508.80 65474 -483 67000 -1526 1301 1077 20 0 0 1301
06/29/2015 509.42 66244 770 67000 -756 1204 1606 14 0 0 1204
06/30/2015 509.31 66107 -137 67000 -893 1224 1173 18 44 0 1180
07/01/2015 508.60 65228 -879 67000 -1772 1259 836 20 0 0 1259
07/02/2015 508.63 65265 37 67000 -1735 1249 1287 19 0 0 1249
07/03/2015 508.32 64883 -382 67000 -2117 1209 1035 19 0 0 1209
07/04/2015 508.59 65215 332 67000 -1785 1236 1420 17 0 0 1236
07/05/2015 509.43 66257 1042 67000 -743 1218 1763 20 0 0 1218
07/06/2015 -- -- -- -- -- -- -- -- -- -- --

Later | Latest

Warning! This data is preliminary and subject to revision.

Show TUL Map | Plot TUL Data | 1 Month TUL Data | Real-Time TUL Data | TUL Info